createdAt,value
2018-02-13T17:22:06.372Z,1.37
2018-02-13T17:24:34.979Z,1.10
2018-02-13T17:27:04.321Z,1.30
2018-02-13T17:33:03.380Z,5.13
2018-02-13T17:35:31.725Z,4.10
2018-02-13T17:37:59.984Z,4.57
2018-02-13T17:40:28.318Z,4.10
2018-02-13T17:42:56.597Z,4.50
2018-02-13T17:45:24.881Z,4.60
2018-02-13T17:47:53.229Z,5.37
2018-02-13T17:50:21.668Z,6.63
2018-02-13T17:52:50.816Z,5.57
2018-02-13T17:55:19.173Z,5.40
2018-02-13T17:57:47.480Z,6.07
2018-02-13T18:00:15.817Z,6.20
2018-02-13T18:02:44.125Z,8.13
2018-02-13T18:05:12.469Z,8.00
2018-02-13T18:07:40.720Z,7.20
2018-02-13T18:10:09.872Z,6.33
2018-02-13T18:12:38.236Z,7.87
2018-02-13T18:15:06.527Z,6.13
2018-02-13T18:17:34.891Z,7.87
2018-02-13T18:20:03.171Z,7.37
2018-02-13T18:22:31.713Z,8.07
2018-02-13T18:25:01.072Z,7.57
2018-02-13T18:27:29.476Z,8.20
2018-02-13T18:29:58.752Z,8.33
2018-02-13T18:32:27.339Z,8.53
2018-02-13T18:34:55.688Z,5.67
2018-02-13T18:37:24.200Z,5.73
2018-02-13T18:39:52.672Z,6.17
2018-02-13T18:42:21.152Z,9.43
2018-02-13T18:44:49.632Z,9.80
2018-02-13T18:47:18.052Z,7.83
2018-02-13T18:49:47.367Z,7.10
2018-02-13T18:54:44.879Z,7.60
2018-02-13T18:57:13.345Z,6.00
2018-02-13T18:59:41.812Z,6.33
2018-02-13T19:02:10.292Z,6.30
2018-02-13T19:04:38.790Z,7.17
2018-02-13T19:07:07.249Z,7.57
2018-02-13T19:09:35.770Z,7.43
2018-02-13T19:12:05.667Z,7.00
2018-02-13T19:14:33.949Z,8.10
2018-02-13T19:19:31.730Z,8.47
2018-02-13T19:22:00.077Z,8.30
2018-02-13T19:24:28.580Z,8.27
2018-02-13T19:26:56.979Z,8.20
2018-02-13T19:29:25.487Z,9.10
2018-02-13T19:31:54.971Z,8.57
2018-02-13T19:34:24.672Z,8.30
2018-02-13T19:36:53.029Z,8.10
2018-02-13T19:39:22.531Z,8.50
2018-02-13T19:41:51.181Z,7.83
2018-02-13T19:44:19.698Z,8.03
2018-02-13T19:46:48.200Z,7.03
2018-02-13T19:49:16.674Z,7.90
2018-02-13T19:51:45.160Z,8.03
2018-02-13T19:54:13.627Z,8.40
2018-02-13T19:56:42.023Z,7.03
2018-02-13T19:59:10.468Z,7.60
2018-02-13T20:01:38.990Z,7.93
2018-02-13T20:04:07.292Z,7.90
2018-02-13T20:06:36.356Z,7.53
2018-02-13T20:09:05.032Z,7.83
2018-02-13T20:11:33.487Z,8.27
2018-02-13T20:14:01.969Z,7.80
2018-02-13T20:16:30.474Z,8.37
2018-02-13T20:18:58.931Z,7.93
2018-02-13T20:21:27.319Z,7.77
2018-02-13T20:23:55.934Z,7.10
2018-02-13T20:26:24.492Z,7.23
2018-02-13T20:28:53.091Z,8.20
2018-02-13T20:31:21.680Z,7.27
2018-02-13T20:33:50.207Z,7.87
2018-02-13T20:36:18.739Z,7.17
2018-02-13T20:38:47.110Z,7.00
2018-02-13T20:41:15.592Z,6.53
2018-02-13T20:43:44.781Z,6.93
2018-02-13T20:46:13.423Z,7.17
2018-02-13T20:48:41.985Z,6.40
2018-02-13T20:51:11.158Z,6.47
2018-02-13T20:53:39.719Z,5.97
2018-02-13T20:56:08.212Z,6.50
2018-02-13T20:58:36.699Z,6.20
2018-02-13T21:01:05.128Z,7.27
2018-02-13T21:03:33.652Z,7.83
2018-02-13T21:06:02.131Z,7.20
2018-02-13T21:08:30.504Z,7.37
2018-02-13T21:10:58.999Z,7.57
2018-02-13T21:13:27.984Z,7.40
2018-02-13T21:15:56.779Z,7.40
2018-02-13T21:18:25.203Z,7.70
2018-02-13T21:20:54.351Z,9.30
2018-02-13T21:23:22.831Z,9.53
2018-02-13T21:25:51.335Z,8.60
2018-02-13T21:28:19.792Z,10.10
2018-02-13T21:30:48.380Z,10.57
2018-02-13T21:33:17.079Z,10.40
2018-02-13T21:35:45.559Z,11.03
2018-02-13T21:38:14.092Z,11.17
2018-02-13T21:40:42.395Z,10.30
2018-02-13T21:43:11.076Z,9.43
2018-02-13T21:45:39.572Z,9.37
2018-02-13T21:48:08.144Z,9.20
2018-02-13T21:50:36.632Z,9.87
2018-02-13T21:53:05.048Z,10.83
2018-02-13T21:55:34.270Z,8.73
2018-02-13T21:58:02.791Z,9.90
2018-02-13T22:00:31.232Z,11.67
2018-02-13T22:02:59.636Z,11.13
2018-02-13T22:05:28.124Z,9.60
2018-02-13T22:07:56.620Z,9.87
2018-02-13T22:10:25.092Z,10.80
2018-02-13T22:12:53.527Z,10.30
2018-02-13T22:15:22.030Z,10.87
2018-02-13T22:17:50.651Z,11.47
2018-02-13T22:20:19.138Z,10.67
2018-02-13T22:22:47.582Z,10.37
2018-02-13T22:25:15.892Z,9.77
2018-02-13T22:27:44.359Z,10.20
2018-02-13T22:30:12.795Z,10.60
2018-02-13T22:32:41.219Z,11.63
2018-02-13T22:35:09.593Z,11.27
2018-02-13T22:37:38.008Z,10.17
2018-02-13T22:40:07.993Z,10.67
2018-02-13T22:42:36.376Z,10.27
2018-02-13T22:45:04.742Z,10.60
2018-02-13T22:47:33.206Z,9.67
2018-02-13T22:50:01.712Z,9.10
2018-02-13T22:52:31.023Z,9.47
2018-02-13T22:54:59.461Z,9.63
2018-02-13T22:57:27.938Z,10.67
2018-02-13T22:59:56.432Z,10.90
2018-02-13T23:02:24.888Z,10.50
2018-02-13T23:04:53.320Z,9.93
2018-02-13T23:07:21.739Z,10.47
2018-02-13T23:09:50.043Z,10.13
2018-02-13T23:12:18.543Z,9.70
2018-02-13T23:14:47.032Z,10.23
2018-02-13T23:17:15.512Z,10.50
2018-02-13T23:19:45.392Z,10.17
2018-02-13T23:22:13.892Z,10.00
2018-02-13T23:24:42.381Z,9.90
2018-02-13T23:27:10.840Z,10.27
2018-02-13T23:29:39.232Z,9.60
2018-02-13T23:32:07.694Z,9.50
2018-02-13T23:34:36.193Z,11.13
2018-02-13T23:37:04.673Z,10.00
2018-02-13T23:39:33.141Z,9.73
2018-02-13T23:42:01.653Z,9.93
2018-02-13T23:44:30.234Z,10.07
2018-02-13T23:46:58.676Z,10.17
2018-02-13T23:49:27.081Z,10.57
2018-02-13T23:51:55.573Z,9.60
2018-02-13T23:54:23.860Z,10.73
2018-02-13T23:56:52.293Z,10.90
2018-02-13T23:59:20.800Z,10.53
